ePrivacy and GPDR Cookie Consent by Cookie Consent
EmailTwitter


Observations de surface / Canada / CYYZ (71624)

Régions: Québec | Canada | États-Unis | Europe | France | UK | Ailleurs
Station
Affichage
Infos & localisation pour CYYZ (71624) | Aide pour décoder les METARs

Observations prises le 2024-04-18 à 01H00 UTC à TORONTO A, ON (CYYZ)

Etat du ciel: couvert.

Température: 9.0 Celsius

Point de rosée: 6.0 Celsius

Humidité relative: 81%

Facteur vent 5.

Facteur vent (rafales) 4.

Vents: Est à 31 km/h ou 17 noeuds.

Rafale du vent: 48 km/h ou 26 noeuds.

Calage altimétrique: 100.85 kilopascals ou 29.78 pouces de mercure.

Visibilité horizontale: 15.00 milles terrestres ou 24.00 kilomètres.

Hauteur du plafond: 488 mètres ( 1600 pieds ).

Observation METAR:

CYYZ 180100Z 09017G26KT 15SM BKN016 OVC095 09/06 A2978=